Time;durP1;ratioP1;P1;durP2;ratioP2;P2;SDS_P1;SDS_P2;PMS_P1;PMS_P2;Temp;Humidity;BMP_temperature;BMP_pressure;BME280_temperature;BME280_humidity;BME280_pressure;Samples;Min_cycle;Max_cycle;Signal;HPM_P1;HPM_P2
2022/06/06 00:01:58;;;;;;;3.70;1.25;;;;;;;16.56;56.23;92701.50;5038196;28;20033;-75
2022/06/06 00:04:27;;;;;;;7.13;1.50;;;;;;;16.50;57.19;92708.03;5047697;28;20174;-75
2022/06/06 00:06:54;;;;;;;4.93;1.20;;;;;;;16.40;58.42;92709.94;5034499;28;20037;-75
2022/06/06 00:09:20;;;;;;;4.35;1.50;;;;;;;16.30;59.13;92701.59;5033181;28;20517;-74
2022/06/06 00:11:46;;;;;;;9.50;1.33;;;;;;;16.20;59.84;92710.63;5039383;28;20045;-74
2022/06/06 00:14:13;;;;;;;3.22;1.27;;;;;;;16.11;59.85;92702.72;5015592;28;20044;-75
2022/06/06 00:16:39;;;;;;;2.10;1.20;;;;;;;16.01;60.90;92698.56;5025275;28;20188;-73
2022/06/06 00:19:05;;;;;;;6.47;1.42;;;;;;;15.94;60.95;92706.19;5046016;28;20140;-75
2022/06/06 00:21:31;;;;;;;4.55;1.40;;;;;;;15.89;60.63;92701.06;5030036;28;20024;-75
2022/06/06 00:23:59;;;;;;;3.75;1.20;;;;;;;15.86;60.23;92701.69;5028837;28;20045;-75
2022/06/06 00:26:26;;;;;;;5.25;1.23;;;;;;;15.86;58.81;92701.69;5037455;28;20107;-75
2022/06/06 00:28:52;;;;;;;2.53;1.40;;;;;;;15.84;60.49;92706.50;5036598;28;20048;-75
2022/06/06 00:36:47;;;;;;;2.67;1.38;;;;;;;15.64;61.64;92715.03;5032268;28;20049;-75
2022/06/06 00:39:16;;;;;;;6.78;1.50;;;;;;;15.59;61.35;92713.34;5037437;28;20348;-75
2022/06/06 00:41:49;;;;;;;3.67;1.35;;;;;;;15.56;61.57;92717.38;5038598;28;20393;-75
2022/06/06 00:44:29;;;;;;;3.63;1.30;;;;;;;15.53;61.74;92711.94;5037863;28;20130;-75
2022/06/06 00:46:56;;;;;;;4.07;1.38;;;;;;;15.67;57.33;92706.50;5032768;28;20035;-75
2022/06/06 00:49:33;;;;;;;1.75;1.20;;;;;;;15.73;57.00;92708.69;5044323;28;20506;-75
2022/06/06 00:51:58;;;;;;;4.10;1.38;;;;;;;15.87;56.25;92687.41;5040098;28;20028;-75
2022/06/06 00:54:24;;;;;;;2.10;1.20;;;;;;;16.22;53.39;92690.75;5038918;28;20514;-74
2022/06/06 00:56:57;;;;;;;3.72;1.30;;;;;;;16.36;53.56;92692.41;5035031;28;20527;-75
2022/06/06 00:59:27;;;;;;;3.45;1.33;;;;;;;16.39;53.24;92695.19;5031221;28;20071;-75
2022/06/06 01:01:55;;;;;;;1.77;1.15;;;;;;;16.41;54.12;92694.88;5032259;28;20048;-74
2022/06/06 01:04:23;;;;;;;5.03;1.48;;;;;;;16.40;54.91;92696.75;5036245;28;20064;-75
2022/06/06 01:06:49;;;;;;;2.60;1.20;;;;;;;16.37;55.28;92702.66;5037323;28;20124;-75
2022/06/06 01:09:18;;;;;;;3.38;1.30;;;;;;;16.33;55.00;92699.09;5034546;28;20128;-75
2022/06/06 01:11:51;;;;;;;1.70;1.13;;;;;;;16.32;55.60;92707.34;5045203;28;20056;-75
2022/06/06 01:14:21;;;;;;;2.45;1.17;;;;;;;16.27;55.40;92699.59;5041648;28;20029;-75
2022/06/06 01:17:01;;;;;;;3.42;1.35;;;;;;;16.20;55.59;92705.34;5043865;28;20471;-75
2022/06/06 01:19:44;;;;;;;1.48;1.00;;;;;;;16.16;56.00;92709.72;5025959;28;20369;-75
2022/06/06 01:22:30;;;;;;;4.82;1.30;;;;;;;16.19;55.01;92706.47;5033468;28;20060;-75
2022/06/06 01:25:32;;;;;;;3.58;1.27;;;;;;;16.30;54.19;92694.47;5051631;28;20103;-75
2022/06/06 01:28:04;;;;;;;2.38;1.15;;;;;;;16.33;53.96;92693.81;5024677;28;20049;-75
2022/06/06 01:30:36;;;;;;;;;;;;;;;16.33;54.36;92698.34;5037508;28;20028;-74
2022/06/06 01:33:03;;;;;;;2.43;1.30;;;;;;;16.29;54.50;92690.25;5035946;28;21918;-75
2022/06/06 01:35:31;;;;;;;2.75;1.42;;;;;;;16.31;53.91;92695.22;5039460;28;20090;-75
2022/06/06 01:37:57;;;;;;;2.33;1.48;;;;;;;16.28;54.52;92699.28;5046486;28;20048;-75
2022/06/06 01:40:25;;;;;;;2.25;1.30;;;;;;;16.22;55.36;92692.63;5035590;28;20045;-75
2022/06/06 01:43:01;;;;;;;2.58;1.30;;;;;;;16.14;55.79;92680.97;5039648;28;20130;-75
2022/06/06 01:45:30;;;;;;;2.95;1.25;;;;;;;16.16;54.38;92683.31;5071067;28;20035;-75
2022/06/06 01:48:23;;;;;;;3.22;1.63;;;;;;;16.19;54.02;92683.47;5040067;28;20033;-74
2022/06/06 01:50:50;;;;;;;2.17;1.30;;;;;;;16.27;53.25;92684.50;5028583;28;20407;-75
2022/06/06 01:53:18;;;;;;;3.35;1.10;;;;;;;16.37;52.96;92681.53;5030788;28;20455;-75
2022/06/06 01:55:47;;;;;;;4.95;1.30;;;;;;;16.34;53.15;92679.50;5034416;28;20034;-74
2022/06/06 01:58:27;;;;;;;2.00;1.10;;;;;;;16.36;53.42;92679.97;5032806;28;20036;-75
2022/06/06 02:00:53;;;;;;;2.38;1.40;;;;;;;16.50;51.74;92676.34;5034850;28;20426;-75
2022/06/06 02:03:19;;;;;;;2.88;1.25;;;;;;;16.49;52.21;92677.44;5021095;28;20033;-75
2022/06/06 02:05:45;;;;;;;3.10;1.30;;;;;;;16.47;52.31;92674.34;5035371;28;20065;-75
2022/06/06 02:08:12;;;;;;;2.47;1.20;;;;;;;16.44;52.24;92684.44;5033865;28;20060;-75
2022/06/06 02:10:38;;;;;;;2.55;1.20;;;;;;;16.44;52.34;92679.16;5036439;28;20036;-75
2022/06/06 02:13:04;;;;;;;1.90;1.00;;;;;;;16.41;52.56;92679.00;5034439;28;20415;-75
2022/06/06 02:15:30;;;;;;;3.13;1.35;;;;;;;16.37;52.48;92681.53;5035663;28;20040;-73
2022/06/06 02:17:57;;;;;;;2.83;1.35;;;;;;;16.30;53.02;92675.97;5031892;28;20037;-75
2022/06/06 02:20:26;;;;;;;2.83;1.30;;;;;;;16.27;53.48;92678.47;5028202;28;20048;-75
2022/06/06 02:22:53;;;;;;;2.83;1.20;;;;;;;16.20;53.64;92674.44;5033941;28;20036;-75
2022/06/06 02:25:19;;;;;;;2.47;0.90;;;;;;;16.15;53.62;92664.03;5027509;28;20454;-74
2022/06/06 02:27:46;;;;;;;3.95;1.25;;;;;;;16.12;53.94;92666.53;5033937;28;20672;-75
2022/06/06 02:30:17;;;;;;;1.90;1.00;;;;;;;16.07;53.49;92650.88;5038642;28;20040;-74
2022/06/06 02:32:43;;;;;;;4.63;1.20;;;;;;;16.05;53.37;92656.44;5036679;28;20387;-75
2022/06/06 02:35:13;;;;;;;1.73;1.10;;;;;;;16.02;53.75;92657.88;5033165;28;20325;-75
2022/06/06 02:37:40;;;;;;;2.28;1.10;;;;;;;16.09;52.54;92656.59;5034636;28;20029;-75
2022/06/06 02:40:09;;;;;;;2.28;1.15;;;;;;;16.08;52.38;92652.44;5036169;28;20538;-75
2022/06/06 02:42:35;;;;;;;3.20;1.13;;;;;;;16.09;52.81;92646.03;5032683;28;20051;-75
2022/06/06 02:45:02;;;;;;;1.38;1.00;;;;;;;16.10;52.05;92643.09;5047894;28;20124;-75
2022/06/06 02:47:29;;;;;;;1.63;1.10;;;;;;;16.12;51.75;92640.91;5046494;28;20033;-75
2022/06/06 02:49:55;;;;;;;1.58;1.00;;;;;;;16.16;51.99;92635.75;5032524;28;20044;-75
2022/06/06 02:52:21;;;;;;;2.08;1.00;;;;;;;16.14;52.28;92632.66;5035086;28;20033;-75
2022/06/06 02:54:47;;;;;;;8.07;1.48;;;;;;;16.13;51.86;92631.13;5023540;28;20092;-73
2022/06/06 02:57:13;;;;;;;3.15;1.20;;;;;;;16.11;52.29;92625.38;5036773;28;20029;-75
2022/06/06 02:59:40;;;;;;;3.17;1.20;;;;;;;16.10;52.71;92621.19;5025572;28;20033;-75
2022/06/06 03:02:08;;;;;;;2.28;1.27;;;;;;;16.08;52.28;92618.09;5026816;28;20120;-75
2022/06/06 03:04:34;;;;;;;3.15;1.10;;;;;;;16.08;51.63;92621.50;5030408;28;20063;-74
2022/06/06 03:07:37;;;;;;;3.40;1.50;;;;;;;16.12;51.00;92625.06;5021031;28;20029;-74
2022/06/06 03:10:21;;;;;;;2.88;1.60;;;;;;;16.20;51.29;92618.19;5033363;28;20030;-75
2022/06/06 03:12:58;;;;;;;2.47;0.93;;;;;;;16.20;50.48;92620.84;5033849;28;20052;-76
2022/06/06 03:15:36;;;;;;;5.20;1.25;;;;;;;16.24;50.21;92632.31;5032985;28;20041;-75
2022/06/06 03:21:08;;;;;;;2.05;1.10;;;;;;;16.40;49.19;92622.75;5050440;28;20045;-76
2022/06/06 03:23:39;;;;;;;2.10;0.93;;;;;;;16.46;49.60;92623.38;5036784;28;20040;-75
2022/06/06 03:26:26;;;;;;;2.10;1.20;;;;;;;16.56;48.54;92623.00;5034469;28;20067;-76
2022/06/06 03:29:13;;;;;;;1.30;0.90;;;;;;;16.68;48.97;92621.53;5044376;28;20036;-76
2022/06/06 03:31:51;;;;;;;5.05;1.02;;;;;;;16.68;48.50;92627.59;5026477;28;20164;-76
2022/06/06 03:34:35;;;;;;;3.45;1.05;;;;;;;16.72;48.48;92625.09;5052784;28;20041;-76
2022/06/06 03:37:15;;;;;;;6.93;1.20;;;;;;;16.72;48.24;92625.84;5038101;28;20033;-75
2022/06/06 03:40:08;;;;;;;4.10;1.10;;;;;;;16.75;48.83;92624.44;5032872;28;20033;-76
2022/06/06 03:42:44;;;;;;;2.63;1.15;;;;;;;16.72;48.50;92630.38;5043897;28;20434;-76
2022/06/06 03:45:38;;;;;;;3.22;1.30;;;;;;;16.68;48.87;92635.50;5037475;28;20029;-76
2022/06/06 03:48:29;;;;;;;2.35;1.20;;;;;;;16.67;48.65;92636.63;5030026;28;20403;-75
2022/06/06 03:51:27;;;;;;;2.60;1.23;;;;;;;16.71;48.43;92629.59;5039320;28;20037;-75
2022/06/06 03:54:08;;;;;;;2.03;1.08;;;;;;;16.69;48.95;92631.78;5050136;28;20057;-75
2022/06/06 03:56:45;;;;;;;3.10;1.30;;;;;;;16.63;49.84;92638.34;5040325;28;20041;-75
2022/06/06 03:59:13;;;;;;;3.15;1.20;;;;;;;16.58;49.58;92644.59;5045196;28;20037;-75
2022/06/06 04:01:41;;;;;;;4.25;1.30;;;;;;;16.56;48.99;92633.56;5047724;28;20399;-75
2022/06/06 04:04:08;;;;;;;3.35;1.20;;;;;;;16.66;48.60;92637.69;5038117;28;20079;-75
2022/06/06 04:06:34;;;;;;;2.78;1.15;;;;;;;16.62;49.75;92642.88;5040003;28;20044;-76
2022/06/06 04:09:01;;;;;;;4.22;1.13;;;;;;;16.60;50.04;92636.34;5036571;28;20494;-75
2022/06/06 04:11:29;;;;;;;6.85;1.23;;;;;;;16.64;48.74;92635.41;5051505;28;20124;-75
2022/06/06 04:14:07;;;;;;;3.47;1.63;;;;;;;16.61;49.48;92641.31;5044123;28;20037;-75
2022/06/06 04:17:08;;;;;;;3.55;1.10;;;;;;;16.63;49.71;92638.34;5045385;28;20155;-76
2022/06/06 04:19:49;;;;;;;3.22;1.15;;;;;;;16.59;49.60;92632.16;5042431;28;20036;-76
2022/06/06 04:22:34;;;;;;;2.17;1.00;;;;;;;16.61;49.85;92629.97;5045444;28;20116;-75
2022/06/06 04:25:09;;;;;;;1.98;1.10;;;;;;;16.63;50.05;92627.78;5030817;28;20055;-75
2022/06/06 04:28:10;;;;;;;1.90;1.02;;;;;;;16.67;49.93;92626.06;5036428;28;20037;-75
2022/06/06 04:31:10;;;;;;;1.52;1.02;;;;;;;16.69;50.07;92626.50;5039079;28;20137;-75
2022/06/06 04:34:07;;;;;;;1.65;1.00;;;;;;;16.71;51.13;92620.91;5033768;28;20037;-75
2022/06/06 04:37:11;;;;;;;2.28;1.17;;;;;;;16.71;51.07;92623.56;5038047;28;20396;-75
2022/06/06 04:39:51;;;;;;;2.35;1.00;;;;;;;16.73;50.62;92624.78;5037568;28;20041;-75
2022/06/06 04:42:30;;;;;;;1.52;1.05;;;;;;;16.76;50.44;92629.41;5037948;28;20088;-76
2022/06/06 04:44:55;;;;;;;3.25;1.05;;;;;;;16.80;50.57;92626.94;5040828;28;20481;-75
2022/06/06 04:47:42;;;;;;;1.52;1.08;;;;;;;16.82;51.25;92625.53;5037356;28;20064;-76
2022/06/06 04:50:20;;;;;;;2.50;1.35;;;;;;;16.82;51.64;92625.53;5032546;28;20098;-75
2022/06/06 04:52:53;;;;;;;3.42;1.10;;;;;;;16.87;51.96;92626.44;5032429;28;20029;-75
2022/06/06 04:55:20;;;;;;;5.85;1.15;;;;;;;16.93;50.85;92614.56;5031658;28;20052;-75
2022/06/06 04:57:52;;;;;;;2.53;1.10;;;;;;;16.98;51.25;92622.31;5036167;28;20040;-75
2022/06/06 05:00:18;;;;;;;3.60;1.10;;;;;;;17.05;51.55;92635.78;5042751;28;20129;-76
2022/06/06 05:02:45;;;;;;;2.92;1.00;;;;;;;17.08;50.80;92637.78;5042321;28;20143;-74
2022/06/06 05:05:11;;;;;;;3.42;1.10;;;;;;;17.14;51.85;92633.09;5038661;28;20530;-76
2022/06/06 05:08:04;;;;;;;2.25;1.00;;;;;;;17.17;52.54;92633.22;5048027;28;20029;-76
2022/06/06 05:10:38;;;;;;;1.67;1.05;;;;;;;17.20;52.60;92634.44;5035782;28;20040;-76
2022/06/06 05:13:23;;;;;;;1.27;1.00;;;;;;;17.27;52.74;92630.19;5029207;28;20030;-75
2022/06/06 05:16:27;;;;;;;1.50;0.90;;;;;;;17.34;53.16;92631.50;5035786;28;20430;-76
2022/06/06 05:18:58;;;;;;;2.95;1.38;;;;;;;17.51;58.19;92634.03;5002768;28;20037;-75
2022/06/06 05:22:07;;;;;;;2.88;1.20;;;;;;;17.61;61.38;92623.03;4999275;28;20103;-75
2022/06/06 05:24:54;;;;;;;3.90;1.60;;;;;;;17.59;62.76;92625.25;4991182;28;20357;-76
2022/06/06 05:28:05;;;;;;;2.70;1.40;;;;;;;17.53;64.27;92625.75;5038171;28;20050;-75
2022/06/06 05:30:45;;;;;;;3.47;1.20;;;;;;;17.62;63.60;92629.88;5032868;28;20041;-74
2022/06/06 05:33:28;;;;;;;3.40;1.23;;;;;;;17.84;62.47;92626.09;5033851;28;20391;-75
2022/06/06 05:36:11;;;;;;;2.28;1.15;;;;;;;17.91;63.25;92636.16;5033486;28;20112;-79
2022/06/06 05:38:54;;;;;;;3.22;1.30;;;;;;;17.93;63.88;92643.78;5039721;28;20064;-77
2022/06/06 05:41:41;;;;;;;5.00;1.27;;;;;;;17.84;64.50;92644.66;5033900;28;20430;-76
2022/06/06 05:44:16;;;;;;;3.65;1.58;;;;;;;17.98;63.65;92644.34;5033391;28;20526;-77
2022/06/06 05:47:19;;;;;;;2.92;1.42;;;;;;;18.77;62.36;92654.81;5031989;28;20033;-77
2022/06/06 05:49:59;;;;;;;2.22;1.30;;;;;;;19.72;59.99;92654.50;5034483;28;20087;-77
2022/06/06 05:52:40;;;;;;;8.70;1.45;;;;;;;20.47;57.50;92653.78;5034884;28;20055;-77
2022/06/06 05:55:15;;;;;;;2.50;1.30;;;;;;;21.19;56.49;92652.75;5040107;28;20585;-77
2022/06/06 05:58:07;;;;;;;4.03;1.60;;;;;;;21.85;54.89;92652.97;5047867;28;20041;-77
2022/06/06 06:00:50;;;;;;;2.90;1.43;;;;;;;22.44;53.60;92654.41;5044266;28;20480;-77
2022/06/06 06:03:25;;;;;;;4.53;1.50;;;;;;;23.05;51.78;92658.03;5049685;28;20087;-77
2022/06/06 06:06:00;;;;;;;6.95;1.50;;;;;;;23.45;50.25;92660.09;5045710;28;20036;-77
2022/06/06 06:08:50;;;;;;;5.80;1.40;;;;;;;23.98;48.83;92663.81;5034240;28;20053;-78
2022/06/06 06:11:34;;;;;;;7.13;1.80;;;;;;;23.89;52.26;92664.13;5033770;28;20288;-78
2022/06/06 06:14:27;;;;;;;5.18;1.60;;;;;;;24.08;52.84;92665.84;5031361;28;20025;-76
2022/06/06 06:16:58;;;;;;;3.85;1.50;;;;;;;24.43;52.15;92675.34;5032799;28;20049;-76
2022/06/06 06:20:04;;;;;;;4.93;1.63;;;;;;;24.83;49.85;92671.13;5043157;28;20064;-76
2022/06/06 06:22:40;;;;;;;5.05;1.90;;;;;;;25.06;50.52;92658.31;5043379;28;20029;-76
2022/06/06 06:25:08;;;;;;;5.15;1.63;;;;;;;25.25;47.90;92664.56;5029035;28;20037;-76
2022/06/06 06:27:35;;;;;;;3.28;1.63;;;;;;;25.49;46.06;92673.91;5040419;28;20029;-76
2022/06/06 06:30:02;;;;;;;7.63;1.35;;;;;;;25.41;46.02;92683.78;5035786;28;20280;-76
2022/06/06 06:32:54;;;;;;;2.88;1.40;;;;;;;25.24;44.05;92684.44;5036619;28;20045;-76
2022/06/06 06:35:40;;;;;;;5.90;1.43;;;;;;;25.13;42.20;92684.38;5033332;28;20034;-76
2022/06/06 06:39:02;;;;;;;3.95;1.80;;;;;;;25.16;42.58;92683.59;5045615;28;20043;-75
2022/06/06 06:42:04;;;;;;;4.72;1.67;;;;;;;25.28;41.83;92691.34;5024922;28;20041;-75
2022/06/06 06:44:39;;;;;;;2.40;1.40;;;;;;;25.38;40.32;92692.59;5044042;28;20392;-76
2022/06/06 06:47:18;;;;;;;5.30;1.80;;;;;;;24.67;47.37;92700.81;5035941;28;20333;-75
2022/06/06 06:49:51;;;;;;;6.90;1.70;;;;;;;23.49;49.71;92701.00;5040253;28;20036;-75
2022/06/06 06:52:49;;;;;;;5.97;1.95;;;;;;;22.62;53.46;92706.16;5030589;28;20030;-75
2022/06/06 06:55:32;;;;;;;6.45;1.92;;;;;;;22.21;52.36;92700.50;5033630;28;20057;-75
2022/06/06 06:58:26;;;;;;;6.20;1.77;;;;;;;21.78;52.53;92704.97;5037157;28;20033;-75
2022/06/06 07:01:00;;;;;;;7.65;2.28;;;;;;;21.81;52.59;92708.81;5035549;28;20047;-75
2022/06/06 07:09:34;;;;;;;4.70;1.70;;;;;;;22.00;51.52;92713.41;5034616;28;20052;-76
2022/06/06 07:12:37;;;;;;;6.32;1.85;;;;;;;22.00;56.37;92721.41;5036387;28;20036;-75
2022/06/06 07:15:25;;;;;;;4.25;1.98;;;;;;;21.45;59.50;92723.31;5031421;28;20091;-75
2022/06/06 07:17:55;;;;;;;8.00;1.88;;;;;;;21.41;58.59;92720.56;5036847;28;20448;-75
2022/06/06 07:20:21;;;;;;;6.50;1.90;;;;;;;21.15;60.66;92727.19;5034644;28;20475;-75
2022/06/06 07:23:11;;;;;;;6.88;1.90;;;;;;;20.95;60.20;92728.25;5026306;28;20044;-75
2022/06/06 07:25:41;;;;;;;6.40;1.90;;;;;;;21.38;60.16;92723.91;5036414;28;20045;-75
2022/06/06 07:28:10;;;;;;;9.38;2.08;;;;;;;21.62;60.51;92720.25;5053403;28;20063;-75
2022/06/06 07:30:40;;;;;;;5.15;1.80;;;;;;;21.58;59.21;92714.84;5051663;28;20399;-75
2022/06/06 07:33:36;;;;;;;3.22;1.83;;;;;;;21.69;60.17;92723.06;5039579;28;20553;-75
2022/06/06 07:36:17;;;;;;;10.38;2.00;;;;;;;21.85;60.76;92719.56;5033139;28;20399;-75
2022/06/06 07:39:01;;;;;;;7.10;2.17;;;;;;;21.61;63.33;92726.69;5033468;28;20033;-75
2022/06/06 07:41:49;;;;;;;4.30;1.70;;;;;;;21.50;63.28;92720.38;5034107;28;20621;-75
2022/06/06 07:44:33;;;;;;;5.18;2.10;;;;;;;21.48;61.84;92723.41;5042441;28;20064;-75
2022/06/06 07:47:02;;;;;;;7.13;1.90;;;;;;;21.71;61.07;92720.81;5030492;28;20033;-74
2022/06/06 07:49:37;;;;;;;5.47;1.83;;;;;;;21.75;59.49;92715.56;5031770;28;20029;-75
2022/06/06 07:52:18;;;;;;;6.10;1.90;;;;;;;21.86;60.46;92716.53;5037759;28;20044;-74
2022/06/06 07:55:08;;;;;;;4.60;1.90;;;;;;;21.89;60.25;92723.09;5052225;28;20049;-75
2022/06/06 07:57:53;;;;;;;3.90;1.75;;;;;;;21.71;60.89;92723.50;5033468;28;20526;-75
2022/06/06 08:00:22;;;;;;;7.57;2.05;;;;;;;21.64;59.63;92720.69;5032867;28;20092;-75
2022/06/06 08:02:59;;;;;;;7.93;2.15;;;;;;;21.78;60.87;92726.28;5033851;28;20032;-75
2022/06/06 08:05:59;;;;;;;3.92;1.83;;;;;;;22.01;60.14;92722.94;5031203;28;20115;-75
2022/06/06 08:08:30;;;;;;;3.78;1.83;;;;;;;22.11;56.86;92716.25;5050765;28;20044;-75
2022/06/06 08:11:09;;;;;;;6.18;1.92;;;;;;;22.09;56.83;92721.16;5051457;28;20076;-75
2022/06/06 08:14:25;;;;;;;3.90;1.90;;;;;;;22.09;52.33;92723.81;5050016;28;20392;-75
2022/06/06 08:17:06;;;;;;;3.97;1.77;;;;;;;22.01;58.31;92722.94;5039785;28;20159;-75
2022/06/06 08:19:41;;;;;;;6.63;2.00;;;;;;;22.28;58.62;92725.75;5052328;28;20070;-75
2022/06/06 08:22:09;;;;;;;4.10;1.70;;;;;;;22.54;57.30;92722.38;5049207;28;20399;-75
2022/06/06 08:24:40;;;;;;;4.40;1.70;;;;;;;22.85;50.85;92716.84;5050826;28;20063;-75
2022/06/06 08:27:12;;;;;;;6.05;1.90;;;;;;;22.89;56.74;92714.19;5050773;28;20123;-74
2022/06/06 08:29:40;;;;;;;6.32;1.90;;;;;;;22.91;56.48;92719.97;5050996;28;20057;-75
2022/06/06 08:32:07;;;;;;;5.00;2.00;;;;;;;22.70;57.27;92719.59;5034080;28;20279;-74
2022/06/06 08:34:33;;;;;;;8.43;1.92;;;;;;;22.32;56.69;92719.34;5049120;28;20053;-75
2022/06/06 08:37:20;;;;;;;4.43;2.13;;;;;;;22.32;56.40;92721.25;5031463;28;20048;-75
2022/06/06 08:40:15;;;;;;;4.03;1.98;;;;;;;22.21;55.66;92726.34;5032210;28;20514;-75
2022/06/06 08:43:10;;;;;;;8.52;2.00;;;;;;;22.47;55.60;92727.59;5031827;28;20121;-75
2022/06/06 08:45:53;;;;;;;3.45;1.80;;;;;;;22.51;55.75;92723.09;5031900;28;20037;-75
2022/06/06 08:48:51;;;;;;;18.27;2.38;;;;;;;22.30;56.27;92726.94;5030755;28;20037;-75
2022/06/06 08:51:22;;;;;;;9.07;1.98;;;;;;;22.25;58.30;92727.22;5033629;28;20064;-75
2022/06/06 08:54:08;;;;;;;4.22;1.90;;;;;;;22.49;56.88;92728.00;5049571;28;20036;-75
2022/06/06 08:57:05;;;;;;;5.10;2.00;;;;;;;22.47;54.52;92727.59;5048332;28;20036;-75
2022/06/06 08:59:30;;;;;;;4.63;1.88;;;;;;;22.65;53.14;92731.34;5051554;28;20025;-75
2022/06/06 09:02:08;;;;;;;6.03;1.80;;;;;;;22.83;53.99;92723.63;5050350;28;20041;-75
2022/06/06 09:05:05;;;;;;;6.72;2.15;;;;;;;22.85;54.59;92724.03;5051602;28;20445;-75
2022/06/06 09:07:55;;;;;;;4.82;1.80;;;;;;;22.77;54.46;92722.41;5031347;28;20087;-75
2022/06/06 09:10:38;;;;;;;5.00;1.80;;;;;;;23.06;53.22;92721.75;5031445;28;20075;-75
2022/06/06 09:13:04;;;;;;;7.07;2.17;;;;;;;23.03;53.15;92727.81;5015836;28;20037;-75
2022/06/06 09:16:27;;;;;;;5.55;1.92;;;;;;;22.83;53.13;92729.75;5030346;28;20044;-75
2022/06/06 09:19:11;;;;;;;4.35;2.00;;;;;;;22.84;53.16;92730.53;5010102;28;20526;-75
2022/06/06 09:22:01;;;;;;;6.82;1.73;;;;;;;22.88;53.14;92726.03;5028632;28;20120;-75
2022/06/06 09:24:45;;;;;;;4.05;1.73;;;;;;;;;;5007310;28;20041;-75
2022/06/06 09:27:35;;;;;;;4.75;1.90;;;;;;;23.06;53.60;92735.09;5031261;28;20037;-75
2022/06/06 09:30:12;;;;;;;3.47;1.90;;;;;;;23.26;49.06;92737.69;5033229;28;20041;-75
2022/06/06 09:33:16;;;;;;;4.15;1.95;;;;;;;23.14;50.60;92737.88;5034879;28;20033;-74
2022/06/06 09:35:48;;;;;;;3.75;1.70;;;;;;;23.19;44.77;92734.91;5031128;28;20037;-75
2022/06/06 09:38:51;;;;;;;3.75;1.80;;;;;;;23.47;49.61;92729.97;5042202;28;20029;-75
2022/06/06 09:41:39;;;;;;;2.30;1.50;;;;;;;23.57;45.17;92730.47;5033360;28;20044;-74
2022/06/06 09:44:19;;;;;;;6.55;1.95;;;;;;;23.25;46.88;92738.81;5042074;28;20071;-74
2022/06/06 09:47:10;;;;;;;3.63;1.90;;;;;;;23.45;46.44;92734.91;5013885;28;20037;-73
2022/06/06 09:49:57;;;;;;;6.25;1.70;;;;;;;23.64;46.96;92731.34;5030484;28;20048;-73
2022/06/06 09:52:23;;;;;;;3.53;1.77;;;;;;;23.76;48.24;92733.06;5031638;28;20487;-73
2022/06/06 10:01:15;;;;;;;4.25;1.65;;;;;;;24.19;45.09;92725.56;5030345;28;20087;-73
2022/06/06 10:04:00;;;;;;;3.75;1.80;;;;;;;24.32;44.41;92728.75;5027776;28;20296;-73
2022/06/06 10:06:50;;;;;;;3.90;1.50;;;;;;;24.37;44.72;92716.94;5048968;28;20025;-74
2022/06/06 10:09:40;;;;;;;3.47;1.60;;;;;;;24.37;47.01;92719.63;5039316;28;20493;-73
2022/06/06 10:12:39;;;;;;;4.97;1.95;;;;;;;24.23;46.89;92726.38;5032589;28;20068;-74
2022/06/06 10:15:17;;;;;;;5.53;1.90;;;;;;;24.19;45.62;92725.56;5033226;28;20500;-74
2022/06/06 10:17:54;;;;;;;4.40;1.80;;;;;;;24.16;46.09;92726.28;5041653;28;20029;-74
2022/06/06 10:20:25;;;;;;;4.97;1.80;;;;;;;24.12;44.80;92728.16;5048278;28;20033;-73
2022/06/06 10:22:56;;;;;;;6.93;2.03;;;;;;;24.29;45.19;92730.22;5039408;28;20033;-74
2022/06/06 10:25:47;;;;;;;6.25;2.10;;;;;;;24.49;46.48;92727.41;5029070;28;20420;-74
2022/06/06 10:28:22;;;;;;;6.60;2.15;;;;;;;24.63;44.26;92727.56;5043279;28;20032;-74
2022/06/06 10:31:12;;;;;;;3.38;1.80;;;;;;;24.68;46.22;92721.09;5042313;28;20119;-74
2022/06/06 10:34:10;;;;;;;4.25;1.60;;;;;;;24.62;42.83;92722.56;5043000;28;20024;-74
2022/06/06 10:36:44;;;;;;;3.72;1.80;;;;;;;24.61;43.96;92719.13;5048242;28;20068;-73
2022/06/06 10:39:45;;;;;;;3.90;1.98;;;;;;;24.55;43.32;92717.91;5038122;28;20022;-73
2022/06/06 10:42:22;;;;;;;3.63;1.80;;;;;;;24.77;46.11;92718.91;5016369;28;20113;-73
2022/06/06 10:45:19;;;;;;;4.13;1.73;;;;;;;24.69;45.73;92714.59;5051924;28;20064;-73
2022/06/06 10:47:53;;;;;;;2.80;1.63;;;;;;;24.46;45.41;92718.19;5044476;28;20082;-72
2022/06/06 10:50:30;;;;;;;7.30;2.33;;;;;;;24.44;44.86;92719.69;5034718;28;20068;-72
2022/06/06 10:53:01;;;;;;;6.28;2.10;;;;;;;24.58;46.63;92717.19;5042440;28;20029;-73
2022/06/06 10:55:45;;;;;;;4.03;1.90;;;;;;;24.61;44.46;92713.78;5047574;28;20534;-74
2022/06/06 10:58:32;;;;;;;3.25;1.80;;;;;;;24.67;44.47;92714.97;5036008;28;20113;-73
2022/06/06 11:01:16;;;;;;;3.83;1.75;;;;;;;24.67;44.13;92712.28;5033450;28;20691;-74
2022/06/06 11:04:00;;;;;;;4.10;1.83;;;;;;;24.65;42.06;92714.56;5038881;28;20183;-74
2022/06/06 11:06:38;;;;;;;4.88;1.77;;;;;;;24.53;40.98;92706.81;5038244;28;20064;-74
2022/06/06 11:09:58;;;;;;;3.90;2.17;;;;;;;24.52;45.33;92705.28;5038921;28;20922;-74
2022/06/06 11:12:32;;;;;;;4.57;1.90;;;;;;;24.58;43.18;92709.16;5026694;28;20029;-75
2022/06/06 11:15:01;;;;;;;9.98;2.00;;;;;;;24.44;43.71;92706.31;5053078;28;20421;-74
2022/06/06 11:18:17;;;;;;;4.72;1.70;;;;;;;24.42;43.71;92705.91;5041779;28;20025;-74
2022/06/06 11:21:04;;;;;;;5.03;2.03;;;;;;;24.52;46.69;92695.34;5014681;28;20065;-75
2022/06/06 11:23:43;;;;;;;4.90;1.88;;;;;;;24.54;44.12;92699.56;5034921;28;20383;-76
2022/06/06 11:26:23;;;;;;;4.72;1.40;;;;;;;24.72;44.17;92700.47;5041216;28;20110;-77
2022/06/06 11:29:13;;;;;;;3.80;1.80;;;;;;;24.64;43.59;92704.25;5040882;28;20536;-76
2022/06/06 11:32:10;;;;;;;7.28;2.35;;;;;;;24.63;43.91;92706.16;5046927;28;20431;-74
2022/06/06 11:35:02;;;;;;;3.03;1.80;;;;;;;24.75;41.93;92690.97;5033614;28;20033;-74
2022/06/06 11:37:40;;;;;;;6.15;2.10;;;;;;;24.72;43.59;92695.91;5039110;28;20391;-74
2022/06/06 11:40:24;;;;;;;4.55;1.80;;;;;;;24.80;44.02;92696.72;5037824;28;20091;-74
2022/06/06 11:43:01;;;;;;;5.38;2.00;;;;;;;24.59;44.40;92685.81;5037415;28;20033;-74
2022/06/06 11:46:08;;;;;;;4.75;1.80;;;;;;;24.73;42.51;92689.41;5051685;28;20229;-74
2022/06/06 11:48:52;;;;;;;6.32;1.95;;;;;;;24.73;44.90;92689.41;5050747;28;20083;-74
2022/06/06 11:51:36;;;;;;;2.50;1.50;;;;;;;24.77;42.01;92694.81;5051960;28;20037;-74
2022/06/06 11:54:10;;;;;;;3.25;1.70;;;;;;;24.72;43.14;92685.22;5035188;28;20119;-74
2022/06/06 11:57:13;;;;;;;3.83;1.80;;;;;;;24.77;43.23;92685.97;5050969;28;20079;-79
2022/06/06 12:00:26;;;;;;;4.18;1.92;;;;;;;24.82;43.10;92669.59;5052006;28;20489;-74
2022/06/06 12:03:12;;;;;;;5.80;1.90;;;;;;;24.90;43.43;92671.16;4990447;28;20092;-74
2022/06/06 12:06:04;;;;;;;4.55;1.70;;;;;;;24.90;43.17;92671.97;5035102;28;20120;-74
2022/06/06 12:08:57;;;;;;;5.65;1.75;;;;;;;24.75;41.36;92669.53;5045617;28;20057;-74
2022/06/06 12:11:38;;;;;;;5.68;1.90;;;;;;;24.84;41.79;92672.69;5046949;28;20128;-74
2022/06/06 12:14:16;;;;;;;4.65;2.05;;;;;;;24.78;42.21;92680.28;5034343;28;20116;-74
2022/06/06 12:16:58;;;;;;;4.40;1.70;;;;;;;25.03;39.59;92668.97;5032484;28;20043;-74
2022/06/06 12:19:45;;;;;;;7.45;1.60;;;;;;;25.11;41.76;92668.66;5038924;28;20076;-74
2022/06/06 12:22:35;;;;;;;3.85;1.90;;;;;;;25.25;40.82;92670.69;5036308;28;20041;-74
2022/06/06 12:25:19;;;;;;;3.10;1.70;;;;;;;25.13;41.50;92668.28;5036688;28;20025;-78
2022/06/06 12:28:17;;;;;;;4.93;1.75;;;;;;;25.14;39.33;92675.19;5037388;28;20376;-77
2022/06/06 12:31:08;;;;;;;4.18;1.73;;;;;;;25.13;39.83;92663.69;5039675;28;20040;-78
2022/06/06 12:33:50;;;;;;;6.05;1.88;;;;;;;25.36;40.90;92657.34;5034076;28;20491;-78
2022/06/06 12:36:18;;;;;;;;;;;;;;;25.28;39.41;92659.22;5048223;28;20037;-78
2022/06/06 12:39:21;;;;;;;3.88;1.70;;;;;;;25.43;39.04;92653.94;5032597;28;20394;-79
2022/06/06 12:42:03;;;;;;;3.28;1.60;;;;;;;25.59;40.65;92654.41;5037610;28;20136;-79
2022/06/06 12:45:16;;;;;;;3.70;1.70;;;;;;;25.74;39.35;92650.66;5035117;28;20092;-78
2022/06/06 12:48:02;;;;;;;3.75;1.60;;;;;;;25.90;38.47;92645.00;5033073;28;20143;-79
2022/06/06 12:50:37;;;;;;;4.97;1.70;;;;;;;25.88;40.29;92647.28;5044821;28;20032;-77
2022/06/06 12:53:04;;;;;;;7.95;2.00;;;;;;;25.76;38.61;92644.91;5033984;28;20029;-79
2022/06/06 12:56:17;;;;;;;3.55;1.77;;;;;;;25.66;38.94;92642.94;5067747;28;20131;-77